Terminal Aerodrome Forecast
Issued by NWS

Home | Current Version | Previous Version | Text Only | Print | Product List | Glossary On
Versions: 1 2 3 4 5 6 7 8 9 10 11 12 13 14 15 16 17 18 19 20 21 22 23 24 25 26 27 28 29 30 31 32 33 34 35 36 37
000
FTUS41 KGYX 302008 AAB
TAFMHT
TAF AMD
KMHT 302008Z 3020/3118 22011G17KT P6SM BKN040 OVC120
     FM302030 21009G19KT 5SM -SHRA BKN040
     FM302100 20008G15KT 4SM -TSRA BKN040CB
     FM302300 22004KT 5SM BR SCT040 BKN120
     FM311200 27007KT P6SM SCT050=

USA.gov is the U.S. government's official web portal to all federal, state and local government web resources and services.